Time;durP1;ratioP1;P1;durP2;ratioP2;P2;SDS_P1;SDS_P2;PMS_P1;PMS_P2;Temp;Humidity;BMP_temperature;BMP_pressure;BME280_temperature;BME280_humidity;BME280_pressure;Samples;Min_cycle;Max_cycle;Signal;HPM_P1;HPM_P2
2021/04/06 00:00:59;;;;;;;10.27;2.20;;;;;;;;;;5089181;28;20570;-69
2021/04/06 00:03:25;;;;;;;16.63;3.57;;;;;;;;;;5084822;28;20222;-68
2021/04/06 00:05:53;;;;;;;9.77;2.40;;;;;;;;;;5083801;28;20166;-69
2021/04/06 00:08:19;;;;;;;19.03;3.20;;;;;;;;;;5091642;28;20169;-69
2021/04/06 00:10:46;;;;;;;13.20;2.97;;;;;;;;;;5084068;28;20569;-69
2021/04/06 00:13:12;;;;;;;11.67;2.70;;;;;;;;;;5092101;28;20176;-68
2021/04/06 00:15:38;;;;;;;15.20;3.43;;;;;;;;;;5089764;28;20179;-70
2021/04/06 00:18:05;;;;;;;12.83;3.23;;;;;;;;;;5086091;28;20572;-68
2021/04/06 00:20:32;;;;;;;12.77;2.83;;;;;;;;;;5087175;28;20732;-67
2021/04/06 00:22:58;;;;;;;17.77;4.10;;;;;;;;;;5082095;28;20646;-68
2021/04/06 00:25:26;;;;;;;13.03;3.07;;;;;;;;;;5091472;28;20183;-68
2021/04/06 00:27:52;;;;;;;8.83;2.97;;;;;;;;;;5090551;28;20177;-67
2021/04/06 00:30:22;;;;;;;15.53;3.03;;;;;;;;;;5092566;28;20198;-68
2021/04/06 00:32:52;;;;;;;14.33;2.93;;;;;;;;;;5090373;28;20265;-68
2021/04/06 00:35:23;;;;;;;13.73;4.37;;;;;;;;;;5091558;28;20191;-68
2021/04/06 00:37:48;;;;;;;15.37;2.97;;;;;;;;;;5076207;28;20185;-68
2021/04/06 00:40:14;;;;;;;13.60;2.63;;;;;;;;;;5084805;28;20210;-68
2021/04/06 00:42:40;;;;;;;15.60;2.83;;;;;;;;;;5089117;28;20172;-68
2021/04/06 00:45:05;;;;;;;11.67;3.07;;;;;;;;;;5086089;28;20173;-67
2021/04/06 00:47:31;;;;;;;10.57;2.70;;;;;;;;;;5086957;28;20593;-67
2021/04/06 00:49:57;;;;;;;11.83;3.47;;;;;;;;;;5082806;28;20201;-67
2021/04/06 00:52:22;;;;;;;11.43;2.27;;;;;;;;;;5087545;28;20192;-68
2021/04/06 00:54:52;;;;;;;7.00;2.37;;;;;;;;;;5074104;28;20238;-68
2021/04/06 00:57:17;;;;;;;11.77;1.57;;;;;;;;;;5082571;28;20184;-68
2021/04/06 01:00:15;;;;;;;11.87;2.47;;;;;;;;;;5089475;28;20255;-68
2021/04/06 01:02:56;;;;;;;9.73;3.00;;;;;;;;;;5064422;28;20180;-68
2021/04/06 01:05:21;;;;;;;6.37;1.37;;;;;;;;;;5079878;28;20188;-67
2021/04/06 01:07:47;;;;;;;11.30;2.00;;;;;;;;;;5086315;28;20187;-69
2021/04/06 01:10:13;;;;;;;10.73;1.63;;;;;;;;;;5077921;28;20288;-68
2021/04/06 01:12:38;;;;;;;9.90;1.87;;;;;;;;;;5085975;28;20255;-67
2021/04/06 01:15:04;;;;;;;6.80;2.57;;;;;;;;;;5087332;28;20176;-68
2021/04/06 01:17:30;;;;;;;8.30;2.50;;;;;;;;;;5089201;28;20172;-68
2021/04/06 01:19:58;;;;;;;8.63;2.07;;;;;;;;;;5085511;28;20204;-69
2021/04/06 01:22:24;;;;;;;10.93;2.20;;;;;;;;;;5085958;28;20248;-68
2021/04/06 01:24:49;;;;;;;10.67;2.07;;;;;;;;;;5080868;28;20730;-68
2021/04/06 01:27:16;;;;;;;13.57;2.57;;;;;;;;;;5083001;28;20263;-68
2021/04/06 01:29:46;;;;;;;13.67;2.47;;;;;;;;;;5080486;28;20454;-68
2021/04/06 01:32:12;;;;;;;14.37;2.20;;;;;;;;;;5089498;28;20230;-68
2021/04/06 01:34:39;;;;;;;10.60;3.30;;;;;;;;;;5086043;28;20200;-68
2021/04/06 01:37:04;;;;;;;13.57;3.27;;;;;;;;;;5087773;28;20169;-68
2021/04/06 01:39:30;;;;;;;7.23;2.10;;;;;;;;;;5083868;28;20619;-68
2021/04/06 01:42:01;;;;;;;17.57;2.97;;;;;;;;;;5080549;28;20249;-69
2021/04/06 01:44:27;;;;;;;13.83;2.93;;;;;;;;;;5089543;28;20267;-68
2021/04/06 01:46:53;;;;;;;12.40;2.10;;;;;;;;;;5084880;28;20389;-68
2021/04/06 01:49:20;;;;;;;11.90;2.57;;;;;;;;;;5084708;28;20203;-68
2021/04/06 01:51:45;;;;;;;10.63;2.37;;;;;;;;;;5085167;28;20245;-68
2021/04/06 01:54:12;;;;;;;13.83;2.53;;;;;;;;;;5080981;28;20268;-68
2021/04/06 01:56:46;;;;;;;16.63;2.17;;;;;;;;;;5088665;28;20168;-69
2021/04/06 01:59:15;;;;;;;8.07;2.17;;;;;;;;;;5084025;28;20203;-68
2021/04/06 02:01:41;;;;;;;8.67;2.27;;;;;;;;;;5088983;28;20196;-68
2021/04/06 02:04:07;;;;;;;8.57;1.90;;;;;;;;;;5089325;28;20179;-69
2021/04/06 02:06:36;;;;;;;7.57;1.73;;;;;;;;;;5083495;28;20173;-68
2021/04/06 02:09:01;;;;;;;7.70;2.80;;;;;;;;;;5081291;28;20192;-68
2021/04/06 02:11:30;;;;;;;6.23;1.83;;;;;;;;;;5084708;28;20761;-68
2021/04/06 02:14:34;;;;;;;11.87;3.37;;;;;;;;;;5089256;28;20306;-68
2021/04/06 02:17:04;;;;;;;9.77;2.03;;;;;;;;;;5078686;28;20712;-68
2021/04/06 02:19:39;;;;;;;7.77;1.80;;;;;;;;;;5087278;28;20693;-68
2021/04/06 02:22:11;;;;;;;8.73;1.90;;;;;;;;;;5086051;28;20218;-68
2021/04/06 02:24:41;;;;;;;6.20;2.00;;;;;;;;;;5088737;28;20193;-69
2021/04/06 02:27:15;;;;;;;6.40;1.40;;;;;;;;;;5088169;28;20176;-68
2021/04/06 02:29:41;;;;;;;10.87;1.57;;;;;;;;;;5083282;28;20195;-69
2021/04/06 02:32:20;;;;;;;8.37;3.37;;;;;;;;;;5084984;28;20179;-68
2021/04/06 02:34:47;;;;;;;10.23;1.50;;;;;;;;;;5088041;28;20192;-67
2021/04/06 02:37:22;;;;;;;10.07;3.17;;;;;;;;;;5085726;28;20230;-67
2021/04/06 02:39:51;;;;;;;10.70;1.70;;;;;;;;;;5079757;28;20230;-69
2021/04/06 02:42:17;;;;;;;8.13;2.00;;;;;;;;;;5080448;28;20217;-68
2021/04/06 02:44:42;;;;;;;6.30;1.40;;;;;;;;;;5075189;28;20681;-69
2021/04/06 02:47:07;;;;;;;9.83;2.10;;;;;;;;;;5078467;28;20177;-69
2021/04/06 02:49:33;;;;;;;5.23;1.57;;;;;;;;;;5084318;28;20191;-69
2021/04/06 02:51:58;;;;;;;9.07;1.43;;;;;;;;;;5085426;28;20203;-68
2021/04/06 02:54:23;;;;;;;3.73;0.90;;;;;;;;;;5081226;28;20177;-67
2021/04/06 02:56:48;;;;;;;7.37;2.77;;;;;;;;;;5077465;28;20654;-68
2021/04/06 02:59:17;;;;;;;6.37;2.03;;;;;;;;;;5076968;28;20619;-67
2021/04/06 03:01:44;;;;;;;11.13;2.43;;;;;;;;;;5078868;28;20200;-67
2021/04/06 03:04:20;;;;;;;6.70;1.13;;;;;;;;;;5077434;28;20356;-68
2021/04/06 03:06:45;;;;;;;6.90;1.13;;;;;;;;;;5078446;28;20176;-68
2021/04/06 03:09:12;;;;;;;12.33;1.83;;;;;;;;;;5086866;28;21585;-68
2021/04/06 03:11:45;;;;;;;9.53;1.90;;;;;;;;;;5076064;28;20189;-69
2021/04/06 03:14:10;;;;;;;11.53;2.20;;;;;;;;;;5076207;28;20180;-69
2021/04/06 03:16:36;;;;;;;10.13;2.07;;;;;;;;;;5076156;28;20192;-69
2021/04/06 03:19:02;;;;;;;4.97;1.83;;;;;;;;;;5075660;28;20213;-68
2021/04/06 03:21:28;;;;;;;6.70;1.93;;;;;;;;;;5080890;28;20196;-68
2021/04/06 03:23:53;;;;;;;6.10;1.93;;;;;;;;;;5081018;28;20536;-67
2021/04/06 03:26:18;;;;;;;18.03;2.27;;;;;;;;;;5079690;28;20184;-68
2021/04/06 03:28:44;;;;;;;11.83;2.20;;;;;;;;;;5080061;28;20181;-69
2021/04/06 03:31:15;;;;;;;9.60;1.90;;;;;;;;;;5077977;28;20208;-67
2021/04/06 03:33:41;;;;;;;7.53;1.53;;;;;;;;;;5081488;28;20188;-68
2021/04/06 03:36:07;;;;;;;4.07;1.97;;;;;;;;;;5080969;28;20327;-67
2021/04/06 03:38:32;;;;;;;6.67;2.70;;;;;;;;;;5082507;28;20241;-68
2021/04/06 03:40:57;;;;;;;11.77;1.77;;;;;;;;;;5079650;28;20231;-68
2021/04/06 03:43:23;;;;;;;10.77;1.30;;;;;;;;;;5087291;28;20199;-67
2021/04/06 03:45:58;;;;;;;9.23;1.73;;;;;;;;;;5081099;28;20183;-68
2021/04/06 03:48:25;;;;;;;8.37;1.57;;;;;;;;;;5084254;28;20176;-68
2021/04/06 03:50:50;;;;;;;8.17;1.60;;;;;;;;;;5080130;28;20608;-67
2021/04/06 03:53:16;;;;;;;9.37;2.87;;;;;;;;;;5078117;28;20172;-68
2021/04/06 03:55:41;;;;;;;4.60;1.20;;;;;;;;;;5082190;28;20585;-68
2021/04/06 03:58:11;;;;;;;6.27;1.50;;;;;;;;;;5087694;28;20208;-70
2021/04/06 04:00:36;;;;;;;7.63;2.30;;;;;;;;;;5083826;28;20200;-67
2021/04/06 04:03:01;;;;;;;3.27;0.80;;;;;;;;;;5086000;28;20169;-68
2021/04/06 04:05:27;;;;;;;8.87;1.30;;;;;;;;;;5086176;28;20222;-70
2021/04/06 04:07:52;;;;;;;7.70;3.13;;;;;;;;;;5087436;28;20661;-67
2021/04/06 04:10:18;;;;;;;3.30;1.00;;;;;;;;;;5085583;28;20631;-70
2021/04/06 04:12:43;;;;;;;3.30;1.20;;;;;;;;;;5084602;28;20200;-69
2021/04/06 04:15:09;;;;;;;3.03;0.83;;;;;;;;;;5079342;28;20252;-70
2021/04/06 04:17:34;;;;;;;5.83;1.83;;;;;;;;;;5082161;28;20176;-70
2021/04/06 04:19:59;;;;;;;5.83;1.23;;;;;;;;;;5088709;28;20311;-70
2021/04/06 04:22:25;;;;;;;3.13;0.93;;;;;;;;;;5092645;28;20177;-68
2021/04/06 04:24:50;;;;;;;3.87;1.10;;;;;;;;;;5076645;28;20180;-67
2021/04/06 04:27:15;;;;;;;5.20;1.57;;;;;;;;;;5091240;28;20180;-70
2021/04/06 04:29:40;;;;;;;6.63;1.17;;;;;;;;;;5089496;28;21617;-69
2021/04/06 04:32:15;;;;;;;4.30;0.90;;;;;;;;;;5083480;28;20714;-70
2021/04/06 04:34:40;;;;;;;3.10;0.90;;;;;;;;;;5091175;28;20183;-67
2021/04/06 04:37:05;;;;;;;5.57;0.83;;;;;;;;;;5087054;28;20276;-70
2021/04/06 04:39:31;;;;;;;4.63;1.00;;;;;;;;;;5084730;28;20207;-69
2021/04/06 04:41:56;;;;;;;1.80;0.67;;;;;;;;;;5087259;28;20215;-69
2021/04/06 04:44:21;;;;;;;4.67;0.87;;;;;;;;;;5083539;28;20180;-68
2021/04/06 04:46:46;;;;;;;2.00;0.60;;;;;;;;;;5074343;28;20592;-70
2021/04/06 04:49:11;;;;;;;3.43;0.70;;;;;;;;;;5078140;28;20234;-69
2021/04/06 04:51:36;;;;;;;2.80;1.00;;;;;;;;;;5082492;28;20204;-70
2021/04/06 04:54:02;;;;;;;1.67;0.80;;;;;;;;;;5079862;28;20652;-68
2021/04/06 04:56:28;;;;;;;3.53;1.00;;;;;;;;;;5083634;28;20209;-69
2021/04/06 04:58:53;;;;;;;3.10;1.40;;;;;;;;;;5080206;28;20192;-70
2021/04/06 05:01:18;;;;;;;2.53;1.00;;;;;;;;;;5076409;28;20560;-68
2021/04/06 05:03:43;;;;;;;1.60;0.87;;;;;;;;;;5078271;28;20181;-68
2021/04/06 05:06:08;;;;;;;2.00;0.90;;;;;;;;;;5075481;28;20177;-68
2021/04/06 05:08:33;;;;;;;2.33;0.77;;;;;;;;;;5082308;28;20313;-68
2021/04/06 05:10:59;;;;;;;3.70;0.80;;;;;;;;;;5079881;28;20326;-68
2021/04/06 05:13:26;;;;;;;3.70;1.30;;;;;;;;;;5077634;28;20579;-68
2021/04/06 05:15:51;;;;;;;1.83;0.70;;;;;;;;;;5086092;28;20601;-67
2021/04/06 05:18:16;;;;;;;5.17;0.70;;;;;;;;;;5079207;28;20204;-67
2021/04/06 05:20:41;;;;;;;2.93;0.73;;;;;;;;;;5081764;28;20677;-68
2021/04/06 05:23:06;;;;;;;3.97;1.07;;;;;;;;;;5074843;28;20193;-68
2021/04/06 05:25:32;;;;;;;4.57;0.80;;;;;;;;;;5081743;28;20192;-67
2021/04/06 05:27:57;;;;;;;5.30;1.63;;;;;;;;;;5074048;28;20211;-68
2021/04/06 05:30:22;;;;;;;5.03;1.23;;;;;;;;;;5082743;28;20242;-67
2021/04/06 05:32:47;;;;;;;2.13;0.80;;;;;;;;;;5076813;28;20181;-67
2021/04/06 05:35:12;;;;;;;6.00;1.07;;;;;;;;;;5083264;28;20207;-67
2021/04/06 05:37:38;;;;;;;3.13;1.10;;;;;;;;;;5076358;28;20190;-68
2021/04/06 05:40:03;;;;;;;3.13;1.40;;;;;;;;;;5082015;28;20250;-67
2021/04/06 05:42:28;;;;;;;5.47;1.47;;;;;;;;;;5083283;28;20595;-67
2021/04/06 05:44:54;;;;;;;5.63;0.97;;;;;;;;;;5077789;28;20199;-67
2021/04/06 05:47:25;;;;;;;4.03;1.13;;;;;;;;;;5081443;28;20200;-68
2021/04/06 05:49:50;;;;;;;4.90;1.20;;;;;;;;;;5079043;28;20176;-68
2021/04/06 05:52:16;;;;;;;6.63;1.10;;;;;;;;;;5073751;28;20556;-68
2021/04/06 05:54:41;;;;;;;8.63;1.40;;;;;;;;;;5086127;28;20715;-68
2021/04/06 05:57:07;;;;;;;14.00;1.40;;;;;;;;;;5086146;28;20199;-69
2021/04/06 05:59:32;;;;;;;5.53;1.33;;;;;;;;;;5071148;28;20215;-68
2021/04/06 06:01:57;;;;;;;4.17;1.17;;;;;;;;;;5079841;28;20191;-68
2021/04/06 06:04:23;;;;;;;5.93;1.60;;;;;;;;;;5080227;28;20590;-67
2021/04/06 06:06:48;;;;;;;3.70;1.47;;;;;;;;;;5078321;28;20200;-68
2021/04/06 06:09:26;;;;;;;3.07;1.20;;;;;;;;;;5086043;28;20183;-68
2021/04/06 06:11:59;;;;;;;4.40;1.13;;;;;;;;;;5081385;28;20266;-68
2021/04/06 06:14:32;;;;;;;2.27;1.00;;;;;;;;;;5077950;28;20287;-68
2021/04/06 06:16:57;;;;;;;5.57;1.33;;;;;;;;;;5077392;28;20593;-68
2021/04/06 06:19:31;;;;;;;4.63;0.87;;;;;;;;;;5081187;28;20210;-68
2021/04/06 06:21:56;;;;;;;2.27;1.10;;;;;;;;;;5062462;28;20209;-67
2021/04/06 06:24:26;;;;;;;7.47;1.10;;;;;;;;;;5072002;28;20223;-68
2021/04/06 06:26:51;;;;;;;3.43;1.03;;;;;;;;;;5075350;28;20175;-67
2021/04/06 06:29:20;;;;;;;6.27;1.20;;;;;;;;;;5077946;28;20725;-68
2021/04/06 06:31:47;;;;;;;4.10;1.13;;;;;;;;;;5074850;28;20212;-68
2021/04/06 06:34:30;;;;;;;2.47;0.80;;;;;;;;;;5077841;28;20196;-68
2021/04/06 06:37:12;;;;;;;3.80;0.80;;;;;;;;;;5083830;28;20585;-68
2021/04/06 06:39:39;;;;;;;4.20;1.57;;;;;;;;;;5087807;28;20228;-67
2021/04/06 06:42:06;;;;;;;6.20;1.00;;;;;;;;;;5079798;28;20199;-69
2021/04/06 06:44:32;;;;;;;3.03;0.87;;;;;;;;;;5075336;28;20173;-68
2021/04/06 06:47:12;;;;;;;3.43;1.17;;;;;;;;;;5080045;28;20263;-67
2021/04/06 06:49:38;;;;;;;3.83;1.20;;;;;;;;;;5076644;28;20179;-68
2021/04/06 06:52:24;;;;;;;5.07;2.00;;;;;;;;;;5076126;28;20253;-68
2021/04/06 06:54:58;;;;;;;6.37;1.53;;;;;;;;;;5075900;28;20196;-68
2021/04/06 06:57:30;;;;;;;4.90;1.67;;;;;;;;;;5079575;28;20187;-68
2021/04/06 07:00:03;;;;;;;5.97;1.37;;;;;;;;;;5079401;28;20569;-68
2021/04/06 07:02:29;;;;;;;3.10;1.10;;;;;;;;;;5078215;28;20315;-68
2021/04/06 07:05:13;;;;;;;7.93;1.30;;;;;;;;;;5078455;28;20260;-68
2021/04/06 07:07:59;;;;;;;5.67;1.20;;;;;;;;;;5074649;28;20201;-68
2021/04/06 07:10:26;;;;;;;7.10;1.47;;;;;;;;;;5080267;28;20196;-68
2021/04/06 07:13:11;;;;;;;3.97;1.00;;;;;;;;;;5083595;28;20173;-67
2021/04/06 07:15:38;;;;;;;3.87;1.90;;;;;;;;;;5080888;28;20235;-68
2021/04/06 07:18:10;;;;;;;3.90;1.23;;;;;;;;;;5078264;28;20241;-67
2021/04/06 07:20:39;;;;;;;6.50;1.23;;;;;;;;;;5088677;28;20701;-68
2021/04/06 07:23:08;;;;;;;3.63;1.53;;;;;;;;;;5077131;28;20675;-68
2021/04/06 07:25:34;;;;;;;3.40;1.20;;;;;;;;;;5084291;28;20241;-68
2021/04/06 07:28:00;;;;;;;3.70;1.20;;;;;;;;;;5065581;28;20677;-68
2021/04/06 07:30:25;;;;;;;6.87;1.40;;;;;;;;;;5062659;28;20211;-68
2021/04/06 07:32:51;;;;;;;5.63;1.37;;;;;;;;;;5062550;28;20189;-66
2021/04/06 07:35:16;;;;;;;6.00;1.60;;;;;;;;;;5065794;28;20322;-68
2021/04/06 07:37:47;;;;;;;10.93;2.00;;;;;;;;;;5064499;28;20249;-68
2021/04/06 07:40:14;;;;;;;5.10;1.40;;;;;;;;;;5076016;28;20521;-68
2021/04/06 07:42:40;;;;;;;13.97;1.70;;;;;;;;;;5083383;28;20200;-68
2021/04/06 07:45:10;;;;;;;8.93;1.67;;;;;;;;;;5063511;28;20269;-67
2021/04/06 07:47:39;;;;;;;3.63;1.50;;;;;;;;;;5069111;28;20216;-67
2021/04/06 07:50:10;;;;;;;4.83;1.83;;;;;;;;;;5064333;28;20321;-68
2021/04/06 07:52:35;;;;;;;4.43;1.30;;;;;;;;;;5070630;28;20711;-68
2021/04/06 07:55:01;;;;;;;13.47;1.53;;;;;;;;;;5070869;28;20189;-67
2021/04/06 07:57:41;;;;;;;5.90;2.00;;;;;;;;;;5067836;28;20176;-68
2021/04/06 08:00:06;;;;;;;2.83;1.17;;;;;;;;;;5067269;28;20224;-68
2021/04/06 08:02:32;;;;;;;4.67;1.67;;;;;;;;;;5068430;28;20182;-67
2021/04/06 08:04:58;;;;;;;6.50;2.03;;;;;;;;;;5076991;28;20215;-66
2021/04/06 08:07:24;;;;;;;6.90;1.47;;;;;;;;;;5069605;28;20172;-67
2021/04/06 08:09:50;;;;;;;6.57;1.43;;;;;;;;;;5078046;28;20185;-68
2021/04/06 08:12:26;;;;;;;5.00;1.60;;;;;;;;;;5072619;28;20187;-67
2021/04/06 08:14:54;;;;;;;4.53;1.50;;;;;;;;;;5067737;28;20219;-68
2021/04/06 08:17:28;;;;;;;6.70;2.00;;;;;;;;;;5065173;28;20180;-68
2021/04/06 08:19:59;;;;;;;12.63;2.63;;;;;;;;;;5065274;28;20207;-67
2021/04/06 08:22:29;;;;;;;8.63;1.50;;;;;;;;;;5072467;28;20283;-68
2021/04/06 08:25:13;;;;;;;5.27;1.60;;;;;;;;;;5067740;28;20169;-68
2021/04/06 08:27:38;;;;;;;8.13;1.80;;;;;;;;;;5088420;28;20240;-68
2021/04/06 08:30:15;;;;;;;8.37;1.70;;;;;;;;;;5071612;28;20705;-67
2021/04/06 08:32:41;;;;;;;4.87;1.53;;;;;;;;;;5066566;28;20189;-67
2021/04/06 08:35:06;;;;;;;7.83;1.67;;;;;;;;;;5070661;28;20210;-68
2021/04/06 08:37:37;;;;;;;11.43;3.23;;;;;;;;;;5068124;28;20715;-68
2021/04/06 08:40:06;;;;;;;9.93;1.70;;;;;;;;;;5082724;28;20208;-67
2021/04/06 08:42:32;;;;;;;9.00;1.50;;;;;;;;;;5078895;28;20207;-67
2021/04/06 08:44:58;;;;;;;7.60;2.17;;;;;;;;;;5080086;28;20176;-67
2021/04/06 08:47:37;;;;;;;5.03;0.97;;;;;;;;;;5066983;28;20188;-67
2021/04/06 08:50:04;;;;;;;4.80;1.50;;;;;;;;;;5065736;28;20203;-68
2021/04/06 08:52:29;;;;;;;6.07;1.37;;;;;;;;;;5064337;28;20188;-68
2021/04/06 08:55:03;;;;;;;3.90;1.20;;;;;;;;;;5067028;28;20245;-68
2021/04/06 08:57:29;;;;;;;2.53;0.70;;;;;;;;;;5065294;28;20553;-68
2021/04/06 08:59:54;;;;;;;2.47;0.60;;;;;;;;;;5064249;28;20211;-68
2021/04/06 09:02:19;;;;;;;4.70;1.37;;;;;;;;;;5067220;28;20910;-68
2021/04/06 09:04:45;;;;;;;4.30;1.20;;;;;;;;;;5064272;28;20188;-68
2021/04/06 09:07:17;;;;;;;1.50;0.70;;;;;;;;;;5067321;28;20276;-67
2021/04/06 09:09:42;;;;;;;2.60;1.47;;;;;;;;;;5069372;28;20665;-67
2021/04/06 09:12:08;;;;;;;5.33;2.23;;;;;;;;;;5066797;28;20185;-67
2021/04/06 09:14:33;;;;;;;3.20;0.90;;;;;;;;;;5069929;28;20241;-67
2021/04/06 09:16:58;;;;;;;2.60;0.93;;;;;;;;;;5069063;28;20641;-67
2021/04/06 09:19:24;;;;;;;7.20;1.50;;;;;;;;;;5067156;28;20203;-70
2021/04/06 09:21:53;;;;;;;3.70;1.03;;;;;;;;;;5063119;28;20232;-67
2021/04/06 09:24:19;;;;;;;6.63;1.30;;;;;;;;;;5077378;28;20181;-68
2021/04/06 09:26:45;;;;;;;3.37;1.13;;;;;;;;;;5068479;28;20605;-66
2021/04/06 09:29:18;;;;;;;6.13;2.07;;;;;;;;;;5063153;28;20726;-68
2021/04/06 09:31:54;;;;;;;4.87;1.13;;;;;;;;;;5065359;28;20231;-67
2021/04/06 09:34:22;;;;;;;4.00;1.13;;;;;;;;;;5064275;28;20914;-68
2021/04/06 09:36:52;;;;;;;3.30;1.20;;;;;;;;;;5067633;28;20237;-68
2021/04/06 09:39:20;;;;;;;9.53;1.87;;;;;;;;;;5063482;28;20213;-68
2021/04/06 09:41:46;;;;;;;2.47;1.00;;;;;;;;;;5064185;28;20215;-67
2021/04/06 09:44:13;;;;;;;7.60;1.67;;;;;;;;;;5062857;28;20644;-67
2021/04/06 09:46:40;;;;;;;7.03;1.43;;;;;;;;;;5066367;28;20177;-68
2021/04/06 09:49:06;;;;;;;3.17;1.03;;;;;;;;;;5077436;28;20176;-66
2021/04/06 09:51:32;;;;;;;1.97;0.80;;;;;;;;;;5063329;28;20591;-67
2021/04/06 09:53:58;;;;;;;2.17;1.00;;;;;;;;;;5063991;28;21695;-68
2021/04/06 09:56:23;;;;;;;1.90;0.63;;;;;;;;;;5063771;28;20192;-67
2021/04/06 09:58:49;;;;;;;1.80;1.33;;;;;;;;;;5068000;28;20759;-68
2021/04/06 10:01:18;;;;;;;1.00;0.50;;;;;;;;;;5076568;28;20308;-68
2021/04/06 10:03:49;;;;;;;1.70;0.50;;;;;;;;;;5062285;28;20196;-68
2021/04/06 10:06:14;;;;;;;0.83;0.50;;;;;;;;;;5066307;28;20208;-67
2021/04/06 10:08:40;;;;;;;1.97;1.07;;;;;;;;;;5061572;28;20734;-67
2021/04/06 10:11:06;;;;;;;2.67;0.70;;;;;;;;;;5068105;28;20212;-67
2021/04/06 10:13:31;;;;;;;1.57;1.13;;;;;;;;;;5063977;28;20192;-67
2021/04/06 10:16:07;;;;;;;2.63;0.77;;;;;;;;;;5063416;28;20189;-68
2021/04/06 10:18:37;;;;;;;3.97;1.00;;;;;;;;;;5065360;28;20214;-67
2021/04/06 10:21:02;;;;;;;2.37;0.73;;;;;;;;;;5070296;28;20439;-67
2021/04/06 10:23:31;;;;;;;1.03;0.73;;;;;;;;;;5065012;28;21569;-66
2021/04/06 10:25:57;;;;;;;4.10;0.77;;;;;;;;;;5062680;28;20563;-66
2021/04/06 10:28:27;;;;;;;5.17;1.30;;;;;;;;;;5065578;28;20184;-68
2021/04/06 10:30:56;;;;;;;3.60;1.13;;;;;;;;;;5065086;28;20214;-69
2021/04/06 10:33:26;;;;;;;5.43;0.93;;;;;;;;;;5067268;28;20188;-67
2021/04/06 10:35:53;;;;;;;3.93;0.97;;;;;;;;;;5066626;28;21123;-68
2021/04/06 10:38:18;;;;;;;1.90;1.03;;;;;;;;;;5068900;28;20665;-71
2021/04/06 10:40:43;;;;;;;5.23;1.07;;;;;;;;;;5068894;28;20469;-68
2021/04/06 10:43:10;;;;;;;3.30;1.10;;;;;;;;;;5070584;28;20252;-68
2021/04/06 10:45:39;;;;;;;1.80;1.00;;;;;;;;;;5066338;28;20181;-68
2021/04/06 10:48:05;;;;;;;2.43;0.90;;;;;;;;;;5071427;28;20180;-68
2021/04/06 10:50:31;;;;;;;3.13;0.97;;;;;;;;;;5073473;28;20265;-68
2021/04/06 10:52:56;;;;;;;3.23;1.10;;;;;;;;;;5071488;28;21057;-68
2021/04/06 10:55:31;;;;;;;2.80;0.70;;;;;;;;;;5077886;28;20293;-68
2021/04/06 10:57:56;;;;;;;5.13;0.93;;;;;;;;;;5068717;28;20389;-68
2021/04/06 11:00:23;;;;;;;2.13;0.80;;;;;;;;;;5085158;28;20685;-66
2021/04/06 11:02:49;;;;;;;3.53;1.33;;;;;;;;;;5072231;28;20184;-65
2021/04/06 11:05:28;;;;;;;2.60;0.73;;;;;;;;;;5065608;28;20251;-70
2021/04/06 11:07:53;;;;;;;2.03;0.80;;;;;;;;;;5067696;28;20188;-69
2021/04/06 11:10:22;;;;;;;3.67;0.83;;;;;;;;;;5063208;28;20223;-69
2021/04/06 11:12:47;;;;;;;6.53;1.83;;;;;;;;;;5066895;28;20191;-69
2021/04/06 11:15:12;;;;;;;5.40;1.20;;;;;;;;;;5073328;28;20173;-68
2021/04/06 11:17:39;;;;;;;1.70;0.70;;;;;;;;;;5069238;28;20185;-69
2021/04/06 11:20:05;;;;;;;2.77;0.67;;;;;;;;;;5065225;28;20204;-69
2021/04/06 11:22:30;;;;;;;2.57;0.90;;;;;;;;;;5064910;28;20647;-66
2021/04/06 11:24:56;;;;;;;1.53;0.70;;;;;;;;;;5066214;28;20271;-66
2021/04/06 11:27:21;;;;;;;1.53;0.70;;;;;;;;;;5066901;28;20180;-66
2021/04/06 11:29:47;;;;;;;2.53;0.80;;;;;;;;;;5069595;28;20176;-68
2021/04/06 11:32:14;;;;;;;1.27;0.60;;;;;;;;;;5065295;28;20177;-68
2021/04/06 11:34:40;;;;;;;1.67;0.60;;;;;;;;;;5065840;28;20293;-68
2021/04/06 11:37:06;;;;;;;0.60;0.50;;;;;;;;;;5066944;28;20192;-68
2021/04/06 11:39:32;;;;;;;3.00;0.80;;;;;;;;;;5064225;28;20208;-68
2021/04/06 11:41:58;;;;;;;2.60;0.60;;;;;;;;;;5066323;28;20224;-67
2021/04/06 11:44:23;;;;;;;4.40;1.13;;;;;;;;;;5065550;28;20259;-67
2021/04/06 11:46:49;;;;;;;3.43;1.33;;;;;;;;;;5068077;28;20280;-69
2021/04/06 11:49:15;;;;;;;4.07;1.67;;;;;;;;;;5061899;28;20208;-70
2021/04/06 11:51:40;;;;;;;1.97;0.70;;;;;;;;;;5067566;28;20207;-67
2021/04/06 11:54:07;;;;;;;1.80;1.10;;;;;;;;;;5068254;28;20203;-67
2021/04/06 11:56:33;;;;;;;3.00;1.10;;;;;;;;;;5065607;28;20657;-67
2021/04/06 11:58:58;;;;;;;3.77;1.17;;;;;;;;;;5066708;28;20196;-67
2021/04/06 12:01:23;;;;;;;5.40;1.30;;;;;;;;;;5064907;28;20240;-68
2021/04/06 12:03:48;;;;;;;5.10;0.83;;;;;;;;;;5070832;28;20183;-69
2021/04/06 12:06:13;;;;;;;2.90;1.10;;;;;;;;;;5068331;28;20276;-68
2021/04/06 12:08:41;;;;;;;7.10;1.10;;;;;;;;;;5064965;28;20816;-68
2021/04/06 12:11:06;;;;;;;7.90;2.50;;;;;;;;;;5068042;28;20230;-67
2021/04/06 12:13:31;;;;;;;8.67;1.87;;;;;;;;;;5065434;28;20193;-69
2021/04/06 12:15:57;;;;;;;5.63;2.13;;;;;;;;;;5068028;28;20187;-68
2021/04/06 12:18:22;;;;;;;5.17;1.40;;;;;;;;;;5067667;28;20189;-68
2021/04/06 12:20:48;;;;;;;7.27;1.37;;;;;;;;;;5064904;28;20216;-66
2021/04/06 12:23:13;;;;;;;5.97;2.10;;;;;;;;;;5065418;28;20561;-69
2021/04/06 12:25:38;;;;;;;6.67;1.43;;;;;;;;;;5066100;28;20184;-69
2021/04/06 12:28:04;;;;;;;4.27;1.63;;;;;;;;;;5067581;28;20172;-68
2021/04/06 12:30:29;;;;;;;10.03;2.47;;;;;;;;;;5067239;28;20554;-67
2021/04/06 12:32:55;;;;;;;5.53;2.00;;;;;;;;;;5063229;28;20207;-68
2021/04/06 12:35:20;;;;;;;3.70;1.13;;;;;;;;;;5064090;28;20673;-69
2021/04/06 12:37:45;;;;;;;6.97;1.70;;;;;;;;;;5065105;28;20630;-69
2021/04/06 12:40:10;;;;;;;5.20;1.20;;;;;;;;;;5065235;28;20200;-69
2021/04/06 12:42:36;;;;;;;3.37;1.27;;;;;;;;;;5068742;28;20184;-68
2021/04/06 12:45:06;;;;;;;4.13;1.33;;;;;;;;;;5064549;28;20603;-69
2021/04/06 12:47:31;;;;;;;6.83;2.60;;;;;;;;;;5065962;28;20219;-70
2021/04/06 12:49:56;;;;;;;1.80;0.90;;;;;;;;;;5065177;28;20267;-69
2021/04/06 12:52:22;;;;;;;4.90;1.10;;;;;;;;;;5069913;28;20216;-68
2021/04/06 12:54:47;;;;;;;5.43;0.97;;;;;;;;;;5065607;28;20188;-69
2021/04/06 12:57:12;;;;;;;4.07;1.50;;;;;;;;;;5066518;28;20189;-69
2021/04/06 12:59:37;;;;;;;4.10;0.90;;;;;;;;;;5067320;28;21963;-68
2021/04/06 13:02:03;;;;;;;5.43;1.20;;;;;;;;;;5070635;28;20204;-68
2021/04/06 13:04:28;;;;;;;1.83;0.97;;;;;;;;;;5069653;28;20191;-70
2021/04/06 13:06:55;;;;;;;4.47;1.23;;;;;;;;;;5067502;28;20177;-67
2021/04/06 13:09:20;;;;;;;5.60;1.10;;;;;;;;;;5068849;28;20189;-69
2021/04/06 13:11:45;;;;;;;7.83;1.27;;;;;;;;;;5064329;28;20697;-70
2021/04/06 13:14:11;;;;;;;3.77;1.27;;;;;;;;;;5062774;28;20579;-67
2021/04/06 13:16:36;;;;;;;5.10;2.03;;;;;;;;;;5066419;28;20184;-69
2021/04/06 13:19:01;;;;;;;7.07;1.93;;;;;;;;;;5067786;28;20668;-69
2021/04/06 13:21:27;;;;;;;8.20;1.83;;;;;;;;;;5072097;28;20771;-67
2021/04/06 13:23:52;;;;;;;4.97;1.20;;;;;;;;;;5064570;28;20233;-68
2021/04/06 13:26:17;;;;;;;6.63;1.27;;;;;;;;;;5064741;28;20659;-69
2021/04/06 13:28:43;;;;;;;9.37;2.10;;;;;;;;;;5063564;28;20267;-69
2021/04/06 13:31:08;;;;;;;5.60;2.57;;;;;;;;;;5067012;28;20288;-68
2021/04/06 13:33:33;;;;;;;9.93;1.60;;;;;;;;;;5062876;28;20267;-66
2021/04/06 13:35:58;;;;;;;5.27;1.60;;;;;;;;;;5063792;28;20196;-69
2021/04/06 13:38:24;;;;;;;6.43;1.37;;;;;;;;;;5062085;28;20204;-67
2021/04/06 13:40:49;;;;;;;8.80;1.80;;;;;;;;;;5065357;28;20315;-67
2021/04/06 13:43:15;;;;;;;4.23;1.10;;;;;;;;;;5060513;28;20187;-69
2021/04/06 13:45:40;;;;;;;2.77;0.83;;;;;;;;;;5069683;28;20183;-70
2021/04/06 13:48:06;;;;;;;5.07;1.13;;;;;;;;;;5061301;28;20819;-68
2021/04/06 13:50:32;;;;;;;5.07;1.40;;;;;;;;;;5070053;28;20193;-70
2021/04/06 13:52:57;;;;;;;6.83;1.30;;;;;;;;;;5063539;28;20697;-69
2021/04/06 13:55:23;;;;;;;3.00;0.87;;;;;;;;;;5061863;28;20180;-69
2021/04/06 13:57:49;;;;;;;4.47;0.90;;;;;;;;;;5066061;28;20228;-69
2021/04/06 14:00:16;;;;;;;1.63;0.80;;;;;;;;;;5062225;28;20653;-68
2021/04/06 14:02:42;;;;;;;3.77;0.90;;;;;;;;;;5062616;28;21984;-69
2021/04/06 14:05:07;;;;;;;3.83;0.90;;;;;;;;;;5069593;28;20681;-69
2021/04/06 14:07:33;;;;;;;3.87;1.10;;;;;;;;;;5067229;28;20219;-69
2021/04/06 14:09:58;;;;;;;4.83;1.33;;;;;;;;;;5065529;28;20177;-69
2021/04/06 14:12:24;;;;;;;6.27;1.43;;;;;;;;;;5067834;28;20560;-68
2021/04/06 14:14:49;;;;;;;6.37;1.90;;;;;;;;;;5064883;28;21647;-67
2021/04/06 14:17:14;;;;;;;2.93;1.17;;;;;;;;;;5065033;28;20657;-69
2021/04/06 14:19:39;;;;;;;7.33;1.50;;;;;;;;;;5067889;28;20208;-68
2021/04/06 14:22:04;;;;;;;4.67;1.30;;;;;;;;;;5060914;28;20200;-68
2021/04/06 14:24:30;;;;;;;5.83;1.60;;;;;;;;;;5064540;28;20188;-69
2021/04/06 14:26:55;;;;;;;5.80;1.80;;;;;;;;;;5064350;28;20191;-68
2021/04/06 14:29:20;;;;;;;11.10;2.37;;;;;;;;;;5062435;28;20189;-69
2021/04/06 14:31:45;;;;;;;4.80;1.40;;;;;;;;;;5063384;28;20294;-69
2021/04/06 14:34:10;;;;;;;13.43;1.73;;;;;;;;;;5062389;28;20623;-68
2021/04/06 14:36:36;;;;;;;5.87;1.60;;;;;;;;;;5069369;28;20184;-66
2021/04/06 14:39:03;;;;;;;5.67;2.07;;;;;;;;;;5061777;28;20677;-67
2021/04/06 14:41:28;;;;;;;4.67;1.50;;;;;;;;;;5061373;28;20193;-68